Time;durP1;ratioP1;P1;durP2;ratioP2;P2;SDS_P1;SDS_P2;PMS_P1;PMS_P2;Temp;Humidity;BMP_temperature;BMP_pressure;BME280_temperature;BME280_humidity;BME280_pressure;Samples;Min_cycle;Max_cycle;Signal;HPM_P1;HPM_P2
2023/09/10 00:01:49;;;;;;;61.92;51.25;;;;;;;;;;5018036;28;20511;-78
2023/09/10 00:04:15;;;;;;;58.53;52.17;;;;;;;;;;5033658;28;20386;-78
2023/09/10 00:06:41;;;;;;;65.30;54.85;;;;;;;;;;5018320;28;20131;-77
2023/09/10 00:09:09;;;;;;;57.28;50.42;;;;;;;;;;5038346;28;20041;-77
2023/09/10 00:11:35;;;;;;;63.92;52.63;;;;;;;;;;5037329;28;20602;-77
2023/09/10 00:14:01;;;;;;;58.42;50.60;;;;;;;;;;5018303;28;20044;-77
2023/09/10 00:16:27;;;;;;;58.20;49.58;;;;;;;;;;5035856;28;20041;-78
2023/09/10 00:18:53;;;;;;;57.20;49.17;;;;;;;;;;5024023;28;20419;-78
2023/09/10 00:21:19;;;;;;;54.45;48.55;;;;;;;;;;5019063;28;20040;-78
2023/09/10 00:23:45;;;;;;;56.75;50.45;;;;;;;;;;5020383;28;20045;-78
2023/09/10 00:26:11;;;;;;;60.72;51.38;;;;;;;;;;5004224;28;22123;-78
2023/09/10 00:28:37;;;;;;;54.65;48.65;;;;;;;;;;5014419;28;20045;-78
2023/09/10 00:31:04;;;;;;;43.63;39.00;;;;;;;;;;5014312;28;20037;-78
2023/09/10 00:33:30;;;;;;;44.60;38.50;;;;;;;;;;4999576;28;20144;-78
2023/09/10 00:35:57;;;;;;;39.72;35.42;;;;;;;;;;5031268;28;20075;-77
2023/09/10 00:38:23;;;;;;;39.55;35.35;;;;;;;;;;5016993;28;20714;-78
2023/09/10 00:40:49;;;;;;;35.38;31.85;;;;;;;;;;5019518;28;20045;-77
2023/09/10 00:43:15;;;;;;;36.05;32.42;;;;;;;;;;5018750;28;20053;-78
2023/09/10 00:45:41;;;;;;;36.90;33.20;;;;;;;;;;5036461;28;20044;-78
2023/09/10 00:48:07;;;;;;;39.20;35.10;;;;;;;;;;5017413;28;20049;-78
2023/09/10 00:50:33;;;;;;;38.15;34.40;;;;;;;;;;5018683;28;20473;-77
2023/09/10 00:53:00;;;;;;;36.50;33.00;;;;;;;;;;5035250;28;20420;-77
2023/09/10 00:55:29;;;;;;;37.20;33.35;;;;;;;;;;5003712;28;20037;-77
2023/09/10 00:57:55;;;;;;;34.75;31.35;;;;;;;;;;5032691;28;20141;-78
2023/09/10 01:00:22;;;;;;;37.67;33.92;;;;;;;;;;5030608;28;20064;-77
2023/09/10 01:02:49;;;;;;;37.83;34.20;;;;;;;;;;5030680;28;20041;-77
2023/09/10 01:05:16;;;;;;;36.45;33.05;;;;;;;;;;5030848;28;20490;-78
2023/09/10 01:07:42;;;;;;;37.47;33.60;;;;;;;;;;5009793;28;20091;-78
2023/09/10 01:10:09;;;;;;;39.30;35.58;;;;;;;;;;5032611;28;20501;-78
2023/09/10 01:12:41;;;;;;;37.63;33.83;;;;;;;;;;5002501;28;20040;-78
2023/09/10 01:15:17;;;;;;;39.20;34.70;;;;;;;;;;5015739;28;20048;-77
2023/09/10 01:17:52;;;;;;;37.58;34.03;;;;;;;;;;5002382;28;20132;-78
2023/09/10 01:20:28;;;;;;;34.47;31.38;;;;;;;;;;5031227;28;20033;-77
2023/09/10 01:22:54;;;;;;;33.63;30.73;;;;;;;;;;5013015;28;20056;-77
2023/09/10 01:25:21;;;;;;;32.95;29.52;;;;;;;;;;5013533;28;20032;-77
2023/09/10 01:27:47;;;;;;;34.88;31.38;;;;;;;;;;5013950;28;20041;-77
2023/09/10 01:30:13;;;;;;;37.55;33.25;;;;;;;;;;5012213;28;20048;-77
2023/09/10 01:32:45;;;;;;;47.60;42.35;;;;;;;;;;5031383;28;20040;-76
2023/09/10 01:35:33;;;;;;;44.42;39.10;;;;;;;;;;5031286;28;20313;-77
2023/09/10 01:38:01;;;;;;;202.45;57.53;;;;;;;;;;5012702;28;20044;-77
2023/09/10 01:40:29;;;;;;;279.48;56.83;;;;;;;;;;5029705;28;20134;-77
2023/09/10 01:42:55;;;;;;;158.15;54.88;;;;;;;;;;5031644;28;20048;-78
2023/09/10 01:45:23;;;;;;;302.60;61.58;;;;;;;;;;5013397;28;20105;-79
2023/09/10 01:47:49;;;;;;;202.00;60.28;;;;;;;;;;5010782;28;20040;-78
2023/09/10 01:50:16;;;;;;;209.85;63.13;;;;;;;;;;5012301;28;20079;-79
2023/09/10 01:52:42;;;;;;;296.10;66.25;;;;;;;;;;5005666;28;20059;-78
2023/09/10 01:55:09;;;;;;;158.55;58.75;;;;;;;;;;5010335;28;20053;-78
2023/09/10 01:57:35;;;;;;;252.13;60.45;;;;;;;;;;5007081;28;20049;-78
2023/09/10 02:00:01;;;;;;;113.78;63.63;;;;;;;;;;5012642;28;20033;-78
2023/09/10 02:02:27;;;;;;;155.05;67.97;;;;;;;;;;5010365;28;20130;-77
2023/09/10 02:04:53;;;;;;;305.02;68.50;;;;;;;;;;5011923;28;20036;-78
2023/09/10 02:07:19;;;;;;;369.25;76.82;;;;;;;;;;5012118;28;20090;-78
2023/09/10 02:09:45;;;;;;;242.82;71.30;;;;;;;;;;4998908;28;20045;-78
2023/09/10 02:12:11;;;;;;;120.75;62.15;;;;;;;;;;5013059;28;20052;-78
2023/09/10 02:14:38;;;;;;;363.85;75.22;;;;;;;;;;5008178;28;20133;-78
2023/09/10 02:17:04;;;;;;;567.05;79.80;;;;;;;;;;5013869;28;20600;-78
2023/09/10 02:19:30;;;;;;;722.42;82.15;;;;;;;;;;5003086;28;20044;-78
2023/09/10 02:21:57;;;;;;;1151.03;92.25;;;;;;;;;;5011605;28;20132;-78
2023/09/10 02:24:23;;;;;;;1171.57;96.32;;;;;;;;;;5014332;28;20496;-78
2023/09/10 02:26:49;;;;;;;1302.25;103.70;;;;;;;;;;4997201;28;20581;-78
2023/09/10 02:29:15;;;;;;;1115.45;88.55;;;;;;;;;;5010266;28;20057;-77
2023/09/10 02:31:41;;;;;;;637.05;73.78;;;;;;;;;;5010389;28;20049;-78
2023/09/10 02:34:07;;;;;;;675.05;73.88;;;;;;;;;;5013687;28;20080;-78
2023/09/10 02:36:33;;;;;;;636.92;74.90;;;;;;;;;;5010690;28;20045;-78
2023/09/10 02:38:59;;;;;;;369.27;68.60;;;;;;;;;;5012462;28;20069;-78
2023/09/10 02:41:25;;;;;;;325.27;67.95;;;;;;;;;;4994744;28;20040;-78
2023/09/10 02:43:51;;;;;;;233.65;69.50;;;;;;;;;;5014444;28;20045;-78
2023/09/10 02:46:18;;;;;;;196.85;65.55;;;;;;;;;;5009633;28;20096;-77
2023/09/10 02:48:44;;;;;;;73.28;59.40;;;;;;;;;;4993427;28;20049;-77
2023/09/10 02:51:10;;;;;;;74.45;60.15;;;;;;;;;;5011874;28;20040;-77
2023/09/10 02:53:36;;;;;;;66.72;58.45;;;;;;;;;;4995844;28;20045;-78
2023/09/10 02:56:02;;;;;;;62.75;54.92;;;;;;;;;;4996110;28;20116;-77
2023/09/10 02:58:29;;;;;;;58.38;51.95;;;;;;;;;;5010312;28;20175;-76
2023/09/10 03:00:55;;;;;;;60.10;53.42;;;;;;;;;;5010596;28;20942;-78
2023/09/10 03:03:22;;;;;;;54.53;47.85;;;;;;;;;;5009092;28;20057;-77
2023/09/10 03:05:48;;;;;;;53.22;47.47;;;;;;;;;;5009584;28;20041;-78
2023/09/10 03:08:14;;;;;;;54.72;49.05;;;;;;;;;;5011051;28;20049;-77
2023/09/10 03:10:40;;;;;;;53.15;47.65;;;;;;;;;;5011461;28;20137;-77
2023/09/10 03:13:06;;;;;;;52.88;47.33;;;;;;;;;;5012514;28;21264;-77
2023/09/10 03:15:32;;;;;;;55.72;47.30;;;;;;;;;;5008181;28;20180;-77
2023/09/10 03:17:58;;;;;;;46.28;41.67;;;;;;;;;;5012178;28;20060;-77
2023/09/10 03:20:24;;;;;;;42.08;37.95;;;;;;;;;;5011465;28;20658;-78
2023/09/10 03:22:54;;;;;;;41.70;37.70;;;;;;;;;;5013841;28;20065;-76
2023/09/10 03:25:20;;;;;;;43.80;35.63;;;;;;;;;;5011339;28;20421;-77
2023/09/10 03:27:46;;;;;;;45.70;40.88;;;;;;;;;;5008702;28;20057;-78
2023/09/10 03:30:13;;;;;;;56.63;50.15;;;;;;;;;;5014078;28;20038;-77
2023/09/10 03:32:39;;;;;;;46.65;41.92;;;;;;;;;;5008591;28;22233;-77
2023/09/10 03:35:06;;;;;;;57.40;40.13;;;;;;;;;;5012115;28;20045;-77
2023/09/10 03:37:32;;;;;;;56.65;39.63;;;;;;;;;;5013462;28;20041;-77
2023/09/10 03:39:58;;;;;;;44.88;40.00;;;;;;;;;;4995374;28;20049;-77
2023/09/10 03:42:24;;;;;;;47.47;41.38;;;;;;;;;;5011186;28;20041;-77
2023/09/10 03:44:50;;;;;;;67.30;47.65;;;;;;;;;;4991311;28;20810;-77
2023/09/10 03:47:16;;;;;;;73.85;49.78;;;;;;;;;;5009431;28;20120;-77
2023/09/10 03:49:42;;;;;;;59.58;47.85;;;;;;;;;;5009902;28;20036;-78
2023/09/10 03:52:18;;;;;;;60.97;50.28;;;;;;;;;;5010071;28;20517;-78
2023/09/10 03:54:44;;;;;;;67.85;52.97;;;;;;;;;;5011113;28;20053;-78
2023/09/10 03:57:10;;;;;;;59.78;49.03;;;;;;;;;;4999697;28;20038;-77
2023/09/10 03:59:36;;;;;;;61.40;48.35;;;;;;;;;;5011691;28;20386;-77
2023/09/10 04:02:02;;;;;;;59.63;48.67;;;;;;;;;;5010532;28;20054;-77
2023/09/10 04:04:28;;;;;;;60.67;49.55;;;;;;;;;;5013448;28;20049;-76
2023/09/10 04:06:54;;;;;;;53.05;46.35;;;;;;;;;;5013673;28;20576;-77
2023/09/10 04:09:21;;;;;;;58.60;45.95;;;;;;;;;;5012220;28;20049;-77
2023/09/10 04:11:47;;;;;;;73.00;54.10;;;;;;;;;;5014320;28;22015;-77
2023/09/10 04:14:13;;;;;;;76.32;54.45;;;;;;;;;;4996790;28;20059;-76
2023/09/10 04:16:39;;;;;;;168.30;56.50;;;;;;;;;;5015932;28;20048;-77
2023/09/10 04:19:05;;;;;;;233.02;58.47;;;;;;;;;;5015471;28;22217;-76
2023/09/10 04:21:32;;;;;;;323.75;64.63;;;;;;;;;;5014690;28;20076;-77
2023/09/10 04:23:58;;;;;;;284.58;65.72;;;;;;;;;;5001223;28;20045;-78
2023/09/10 04:26:25;;;;;;;213.98;64.18;;;;;;;;;;5003789;28;20045;-76
2023/09/10 04:28:51;;;;;;;89.25;55.53;;;;;;;;;;5020705;28;20073;-78
2023/09/10 04:31:38;;;;;;;100.18;57.08;;;;;;;;;;5021038;28;20052;-78
2023/09/10 04:34:04;;;;;;;111.25;58.35;;;;;;;;;;5002782;28;20096;-78
2023/09/10 04:36:31;;;;;;;107.40;57.45;;;;;;;;;;5002683;28;20680;-78
2023/09/10 04:38:57;;;;;;;90.35;59.72;;;;;;;;;;5021942;28;20049;-76
2023/09/10 04:41:24;;;;;;;277.38;65.88;;;;;;;;;;5019978;28;20490;-77
2023/09/10 04:43:50;;;;;;;122.28;63.90;;;;;;;;;;5020285;28;20099;-78
2023/09/10 04:46:16;;;;;;;115.30;66.93;;;;;;;;;;5019749;28;20049;-77
2023/09/10 04:48:42;;;;;;;133.23;67.07;;;;;;;;;;5019775;28;20045;-78
2023/09/10 04:51:08;;;;;;;109.53;60.08;;;;;;;;;;5017926;28;20042;-78
2023/09/10 04:53:35;;;;;;;88.60;61.25;;;;;;;;;;5020217;28;20045;-78
2023/09/10 04:56:02;;;;;;;311.00;78.85;;;;;;;;;;5016170;28;20041;-78
2023/09/10 04:58:28;;;;;;;929.13;87.68;;;;;;;;;;5020287;28;20045;-78
2023/09/10 05:00:54;;;;;;;572.25;79.63;;;;;;;;;;5021162;28;20128;-78
2023/09/10 05:03:21;;;;;;;618.78;83.65;;;;;;;;;;5018652;28;20041;-77
2023/09/10 05:05:47;;;;;;;768.83;88.45;;;;;;;;;;5022349;28;20056;-78
2023/09/10 05:08:13;;;;;;;610.55;82.63;;;;;;;;;;5019428;28;20060;-77
2023/09/10 05:10:39;;;;;;;568.80;80.57;;;;;;;;;;5014451;28;20041;-77
2023/09/10 05:13:05;;;;;;;576.65;83.88;;;;;;;;;;5018626;28;20037;-77
2023/09/10 05:15:31;;;;;;;723.85;94.65;;;;;;;;;;5018071;28;20083;-77
2023/09/10 05:17:57;;;;;;;481.88;79.90;;;;;;;;;;5020828;28;20042;-78
2023/09/10 05:20:23;;;;;;;348.33;75.07;;;;;;;;;;5018694;28;20041;-78
2023/09/10 05:22:49;;;;;;;310.70;69.68;;;;;;;;;;5020230;28;20073;-78
2023/09/10 05:25:15;;;;;;;189.15;67.20;;;;;;;;;;5014891;28;20033;-77
2023/09/10 05:27:42;;;;;;;379.40;69.35;;;;;;;;;;5003482;28;20114;-77
2023/09/10 05:30:08;;;;;;;242.80;63.35;;;;;;;;;;5003673;28;20046;-77
2023/09/10 05:32:34;;;;;;;220.57;61.00;;;;;;;;;;5006291;28;20507;-78
2023/09/10 05:35:00;;;;;;;128.75;59.70;;;;;;;;;;5019396;28;20033;-77
2023/09/10 05:37:26;;;;;;;225.85;57.15;;;;;;;;;;5017991;28;20041;-77
2023/09/10 05:39:52;;;;;;;117.55;55.83;;;;;;;;;;4999830;28;20045;-79
2023/09/10 05:42:18;;;;;;;79.88;58.40;;;;;;;;;;5013611;28;20057;-78
2023/09/10 05:44:44;;;;;;;133.95;61.80;;;;;;;;;;5000313;28;20084;-78
2023/09/10 05:47:11;;;;;;;289.70;66.13;;;;;;;;;;5000946;28;20062;-79
2023/09/10 05:49:37;;;;;;;414.73;70.45;;;;;;;;;;5019738;28;20049;-79
2023/09/10 05:52:04;;;;;;;362.15;73.50;;;;;;;;;;5026095;28;20053;-78
2023/09/10 05:54:30;;;;;;;394.38;69.53;;;;;;;;;;5020996;28;20044;-78
2023/09/10 05:56:56;;;;;;;399.67;70.88;;;;;;;;;;5038708;28;20041;-78
2023/09/10 05:59:22;;;;;;;353.33;68.88;;;;;;;;;;5022626;28;20046;-79
2023/09/10 06:01:48;;;;;;;401.70;70.57;;;;;;;;;;5015629;28;20155;-79
2023/09/10 06:04:14;;;;;;;411.67;70.60;;;;;;;;;;5011107;28;20041;-79
2023/09/10 06:06:40;;;;;;;230.90;63.78;;;;;;;;;;5019011;28;20037;-79
2023/09/10 06:09:06;;;;;;;292.52;67.25;;;;;;;;;;5005894;28;20056;-78
2023/09/10 06:11:32;;;;;;;195.07;65.43;;;;;;;;;;5005106;28;20052;-78
2023/09/10 06:13:59;;;;;;;159.20;65.40;;;;;;;;;;5015305;28;20045;-77
2023/09/10 06:16:25;;;;;;;83.63;59.20;;;;;;;;;;5018208;28;20067;-78
2023/09/10 06:18:51;;;;;;;123.18;61.20;;;;;;;;;;5001718;28;20055;-78
2023/09/10 06:21:18;;;;;;;111.80;62.95;;;;;;;;;;5016741;28;20060;-79
2023/09/10 06:23:44;;;;;;;306.67;66.95;;;;;;;;;;5018433;28;20091;-79
2023/09/10 06:26:10;;;;;;;304.70;67.90;;;;;;;;;;5020640;28;20044;-79
2023/09/10 06:28:38;;;;;;;381.50;70.72;;;;;;;;;;5031149;28;20048;-79
2023/09/10 06:31:09;;;;;;;200.60;61.13;;;;;;;;;;5018231;28;20171;-79
2023/09/10 06:33:35;;;;;;;252.02;62.17;;;;;;;;;;5001837;28;20052;-78
2023/09/10 06:36:01;;;;;;;135.55;62.33;;;;;;;;;;5030770;28;21701;-79
2023/09/10 06:38:28;;;;;;;204.73;68.15;;;;;;;;;;5032922;28;20044;-78
2023/09/10 06:40:54;;;;;;;142.63;62.13;;;;;;;;;;5027633;28;20052;-79
2023/09/10 06:43:20;;;;;;;154.70;63.72;;;;;;;;;;5011070;28;20049;-79
2023/09/10 06:45:47;;;;;;;86.60;59.83;;;;;;;;;;5029474;28;20584;-79
2023/09/10 06:48:13;;;;;;;86.63;60.85;;;;;;;;;;5032432;28;20048;-80
2023/09/10 06:50:39;;;;;;;148.38;66.75;;;;;;;;;;5032625;28;20044;-80
2023/09/10 06:53:05;;;;;;;75.70;58.28;;;;;;;;;;5014462;28;20045;-80
2023/09/10 06:55:31;;;;;;;76.22;61.60;;;;;;;;;;5000659;28;20088;-80
2023/09/10 06:57:57;;;;;;;75.80;60.85;;;;;;;;;;5016195;28;20132;-79
2023/09/10 07:00:23;;;;;;;65.82;57.63;;;;;;;;;;5031308;28;20071;-79
2023/09/10 07:02:49;;;;;;;66.63;57.22;;;;;;;;;;5002169;28;20523;-79
2023/09/10 07:05:15;;;;;;;73.25;63.10;;;;;;;;;;5013773;28;20107;-79
2023/09/10 07:07:42;;;;;;;64.55;57.65;;;;;;;;;;5024521;28;20040;-80
2023/09/10 07:10:10;;;;;;;64.75;57.70;;;;;;;;;;5010954;28;20127;-80
2023/09/10 07:12:36;;;;;;;67.20;59.90;;;;;;;;;;5029110;28;20063;-79
2023/09/10 07:15:02;;;;;;;73.85;64.65;;;;;;;;;;5013575;28;20079;-79
2023/09/10 07:17:28;;;;;;;71.38;62.25;;;;;;;;;;4998282;28;20456;-79
2023/09/10 07:19:54;;;;;;;71.85;60.08;;;;;;;;;;4996885;28;20420;-78
2023/09/10 07:22:20;;;;;;;65.50;58.28;;;;;;;;;;5028231;28;20051;-78
2023/09/10 07:24:46;;;;;;;65.38;57.10;;;;;;;;;;4992218;28;20424;-79
2023/09/10 07:27:13;;;;;;;65.40;57.60;;;;;;;;;;5011170;28;20065;-78
2023/09/10 07:29:39;;;;;;;64.45;55.42;;;;;;;;;;5005511;28;20048;-78
2023/09/10 07:32:05;;;;;;;64.13;55.90;;;;;;;;;;4995314;28;20066;-78
2023/09/10 07:34:31;;;;;;;61.00;53.95;;;;;;;;;;4999109;28;20085;-78
2023/09/10 07:36:57;;;;;;;58.70;52.35;;;;;;;;;;5028032;28;20052;-77
2023/09/10 07:39:23;;;;;;;58.95;51.83;;;;;;;;;;5029160;28;20670;-77
2023/09/10 07:41:49;;;;;;;56.13;49.78;;;;;;;;;;4998866;28;20040;-78
2023/09/10 07:44:16;;;;;;;58.55;50.03;;;;;;;;;;5013377;28;20041;-76
2023/09/10 07:46:42;;;;;;;54.55;46.83;;;;;;;;;;5014442;28;20056;-77
2023/09/10 07:49:08;;;;;;;55.00;47.75;;;;;;;;;;5018320;28;20404;-77
2023/09/10 07:51:34;;;;;;;53.10;46.58;;;;;;;;;;5006343;28;20045;-78
2023/09/10 07:54:00;;;;;;;50.45;41.88;;;;;;;;;;5019520;28;20102;-76
2023/09/10 07:56:27;;;;;;;48.10;43.00;;;;;;;;;;5037608;28;20744;-77
2023/09/10 07:58:53;;;;;;;55.72;44.90;;;;;;;;;;5017365;28;20484;-75
2023/09/10 08:01:19;;;;;;;48.65;43.42;;;;;;;;;;5036115;28;20048;-76
2023/09/10 08:03:46;;;;;;;52.53;44.35;;;;;;;;;;5037137;28;20061;-77
2023/09/10 08:06:12;;;;;;;52.05;46.55;;;;;;;;;;5001564;28;20048;-77
2023/09/10 08:08:38;;;;;;;55.00;46.40;;;;;;;;;;5021154;28;20555;-77
2023/09/10 08:11:04;;;;;;;51.88;46.28;;;;;;;;;;5018340;28;20040;-76
2023/09/10 08:13:30;;;;;;;56.15;48.08;;;;;;;;;;5001923;28;20132;-76
2023/09/10 08:15:56;;;;;;;49.65;44.33;;;;;;;;;;5031869;28;20052;-76
2023/09/10 08:18:22;;;;;;;48.33;42.58;;;;;;;;;;5019106;28;20049;-76
2023/09/10 08:20:48;;;;;;;50.03;43.25;;;;;;;;;;5019734;28;20044;-76
2023/09/10 08:23:17;;;;;;;48.72;41.55;;;;;;;;;;5037680;28;20171;-77
2023/09/10 08:25:43;;;;;;;50.60;44.80;;;;;;;;;;5021139;28;20126;-76
2023/09/10 08:28:09;;;;;;;48.58;42.28;;;;;;;;;;5037049;28;20677;-77
2023/09/10 08:30:35;;;;;;;47.95;41.90;;;;;;;;;;5016146;28;20046;-76
2023/09/10 08:33:02;;;;;;;46.08;39.67;;;;;;;;;;4995733;28;20037;-77
2023/09/10 08:35:47;;;;;;;45.97;40.95;;;;;;;;;;5031357;28;20059;-77
2023/09/10 08:38:14;;;;;;;46.08;41.05;;;;;;;;;;5015477;28;20075;-77
2023/09/10 08:40:43;;;;;;;43.50;38.95;;;;;;;;;;5012627;28;21189;-77
2023/09/10 08:43:11;;;;;;;45.10;39.53;;;;;;;;;;4996573;28;20053;-77
2023/09/10 08:45:37;;;;;;;45.33;40.28;;;;;;;;;;5013537;28;20044;-77
2023/09/10 08:48:05;;;;;;;50.90;42.90;;;;;;;;;;5014064;28;20382;-77
2023/09/10 08:50:32;;;;;;;44.70;39.95;;;;;;;;;;5016419;28;20675;-77
2023/09/10 08:52:58;;;;;;;49.13;40.30;;;;;;;;;;5039084;28;20049;-75
2023/09/10 08:55:25;;;;;;;44.85;39.55;;;;;;;;;;5031643;28;20730;-78
2023/09/10 08:57:54;;;;;;;47.53;42.13;;;;;;;;;;5000331;28;20180;-76
2023/09/10 09:00:22;;;;;;;45.05;39.45;;;;;;;;;;5018286;28;20171;-76
2023/09/10 09:02:48;;;;;;;43.45;38.45;;;;;;;;;;5033725;28;20829;-76
2023/09/10 09:05:14;;;;;;;41.95;37.45;;;;;;;;;;5036381;28;20044;-76
2023/09/10 09:07:41;;;;;;;45.25;38.45;;;;;;;;;;5032363;28;20047;-77
2023/09/10 09:10:09;;;;;;;41.78;36.97;;;;;;;;;;5014846;28;20496;-77
2023/09/10 09:12:38;;;;;;;44.83;37.08;;;;;;;;;;5034382;28;20056;-77
2023/09/10 09:15:04;;;;;;;44.20;37.30;;;;;;;;;;5016661;28;20060;-77
2023/09/10 09:17:41;;;;;;;41.00;36.63;;;;;;;;;;5016519;28;20564;-78
2023/09/10 09:20:10;;;;;;;40.10;35.72;;;;;;;;;;5033433;28;20064;-78
2023/09/10 09:22:39;;;;;;;42.10;36.67;;;;;;;;;;5027873;28;21741;-77
2023/09/10 09:25:07;;;;;;;41.00;34.33;;;;;;;;;;5006208;28;21520;-76
2023/09/10 09:27:34;;;;;;;37.80;33.80;;;;;;;;;;4994741;28;20055;-76
2023/09/10 09:30:02;;;;;;;37.42;31.23;;;;;;;;;;5011204;28;20110;-77
2023/09/10 09:32:28;;;;;;;34.03;30.10;;;;;;;;;;5031973;28;20421;-77
2023/09/10 09:34:55;;;;;;;34.13;30.42;;;;;;;;;;5037967;28;20118;-77
2023/09/10 09:37:21;;;;;;;34.70;30.95;;;;;;;;;;5032981;28;20047;-76
2023/09/10 09:39:50;;;;;;;33.53;29.48;;;;;;;;;;5033416;28;20052;-75
2023/09/10 09:42:16;;;;;;;37.15;30.08;;;;;;;;;;4996562;28;20126;-77
2023/09/10 09:44:44;;;;;;;31.80;28.35;;;;;;;;;;5032658;28;20037;-78
2023/09/10 09:47:13;;;;;;;34.10;29.10;;;;;;;;;;5009199;28;20055;-78
2023/09/10 09:49:44;;;;;;;30.13;27.02;;;;;;;;;;5032331;28;20045;-78
2023/09/10 09:52:10;;;;;;;29.80;25.90;;;;;;;;;;5024299;28;20053;-78
2023/09/10 09:54:37;;;;;;;30.00;26.52;;;;;;;;;;5024371;28;20064;-78
2023/09/10 09:57:06;;;;;;;30.17;27.17;;;;;;;;;;5006704;28;20040;-79
2023/09/10 09:59:36;;;;;;;30.20;27.00;;;;;;;;;;5023198;28;20050;-79
2023/09/10 10:02:02;;;;;;;30.08;25.95;;;;;;;;;;5013091;28;20041;-79
2023/09/10 10:04:32;;;;;;;35.08;27.20;;;;;;;;;;5005977;28;20140;-79
2023/09/10 10:06:58;;;;;;;32.50;26.20;;;;;;;;;;5039908;28;20566;-79
2023/09/10 10:09:33;;;;;;;26.77;23.98;;;;;;;;;;5012311;28;20155;-79
2023/09/10 10:11:59;;;;;;;28.42;23.20;;;;;;;;;;5037287;28;20037;-78
2023/09/10 10:14:26;;;;;;;26.52;23.35;;;;;;;;;;5037351;28;20216;-79
2023/09/10 10:16:53;;;;;;;26.30;23.60;;;;;;;;;;5037856;28;20047;-78
2023/09/10 10:19:20;;;;;;;29.88;25.75;;;;;;;;;;5013837;28;20048;-76
2023/09/10 10:21:47;;;;;;;24.83;22.33;;;;;;;;;;5028731;28;20090;-77
2023/09/10 10:24:15;;;;;;;28.10;23.48;;;;;;;;;;5015845;28;20052;-76
2023/09/10 10:26:43;;;;;;;26.35;21.20;;;;;;;;;;4997944;28;20076;-76
2023/09/10 10:29:09;;;;;;;23.70;20.75;;;;;;;;;;5029706;28;20443;-76
2023/09/10 10:31:37;;;;;;;22.35;20.15;;;;;;;;;;5008057;28;20128;-75
2023/09/10 10:34:09;;;;;;;25.02;21.75;;;;;;;;;;5017910;28;20037;-79
2023/09/10 10:36:53;;;;;;;25.00;20.60;;;;;;;;;;5009464;28;20048;-79
2023/09/10 10:39:23;;;;;;;21.48;19.33;;;;;;;;;;5029179;28;20056;-79
2023/09/10 10:41:52;;;;;;;23.27;20.63;;;;;;;;;;5010637;28;20098;-79
2023/09/10 10:44:20;;;;;;;22.70;20.48;;;;;;;;;;5012444;28;20481;-79
2023/09/10 10:46:48;;;;;;;21.25;19.05;;;;;;;;;;5028031;28;21021;-76
2023/09/10 10:49:14;;;;;;;21.85;19.60;;;;;;;;;;5010824;28;20113;-75
2023/09/10 10:51:42;;;;;;;24.58;19.50;;;;;;;;;;4993423;28;20726;-82
2023/09/10 10:54:08;;;;;;;19.67;17.77;;;;;;;;;;5025638;28;20053;-78
2023/09/10 10:56:35;;;;;;;18.83;16.60;;;;;;;;;;5024126;28;20061;-77
2023/09/10 10:59:01;;;;;;;21.02;17.25;;;;;;;;;;5007865;28;20052;-78
2023/09/10 11:01:28;;;;;;;18.65;16.65;;;;;;;;;;5021737;28;20122;-77
2023/09/10 11:03:54;;;;;;;22.88;16.30;;;;;;;;;;5008399;28;20044;-77
2023/09/10 11:06:20;;;;;;;20.70;17.45;;;;;;;;;;4988296;28;20501;-77
2023/09/10 11:08:46;;;;;;;17.48;15.68;;;;;;;;;;4992057;28;20049;-77
2023/09/10 11:11:31;;;;;;;20.95;17.45;;;;;;;;;;5008757;28;20163;-78
2023/09/10 11:14:01;;;;;;;21.52;18.80;;;;;;;;;;5011374;28;20139;-75
2023/09/10 11:16:31;;;;;;;21.77;18.88;;;;;;;;;;5024236;28;21659;-76
2023/09/10 11:18:57;;;;;;;21.13;18.50;;;;;;;;;;5010192;28;20633;-77
2023/09/10 11:21:45;;;;;;;20.13;18.13;;;;;;;;;;5016529;28;20051;-74
2023/09/10 11:24:15;;;;;;;19.95;17.30;;;;;;;;;;5005376;28;20140;-78
2023/09/10 11:26:41;;;;;;;20.20;18.30;;;;;;;;;;5010778;28;20056;-78
2023/09/10 11:29:08;;;;;;;18.70;16.80;;;;;;;;;;4988877;28;20049;-77
2023/09/10 11:31:38;;;;;;;20.48;17.92;;;;;;;;;;5022631;28;20044;-79
2023/09/10 11:34:16;;;;;;;19.25;17.25;;;;;;;;;;5011223;28;20115;-78
2023/09/10 11:36:43;;;;;;;20.20;17.73;;;;;;;;;;5007470;28;20068;-78
2023/09/10 11:39:09;;;;;;;21.77;17.40;;;;;;;;;;5017379;28;20127;-79
2023/09/10 11:41:36;;;;;;;17.75;16.02;;;;;;;;;;5019164;28;20055;-78
2023/09/10 11:44:02;;;;;;;20.98;18.60;;;;;;;;;;5019120;28;20738;-78
2023/09/10 11:46:28;;;;;;;22.83;20.42;;;;;;;;;;5015618;28;20055;-78
2023/09/10 11:48:54;;;;;;;23.25;20.70;;;;;;;;;;5033615;28;20479;-79
2023/09/10 11:51:20;;;;;;;22.30;18.60;;;;;;;;;;5004375;28;20128;-79
2023/09/10 11:53:47;;;;;;;23.33;16.77;;;;;;;;;;5011321;28;20060;-80
2023/09/10 11:56:13;;;;;;;20.92;16.67;;;;;;;;;;5006544;28;20068;-83
2023/09/10 11:58:39;;;;;;;21.25;17.40;;;;;;;;;;5008264;28;20489;-82
2023/09/10 12:01:05;;;;;;;20.60;17.75;;;;;;;;;;5011118;28;20044;-83
2023/09/10 12:03:31;;;;;;;18.77;16.98;;;;;;;;;;5013130;28;20048;-83
2023/09/10 12:05:58;;;;;;;18.67;16.67;;;;;;;;;;5039592;28;20059;-83
2023/09/10 12:08:24;;;;;;;19.73;17.75;;;;;;;;;;5023132;28;20049;-85
2023/09/10 12:10:52;;;;;;;20.58;18.27;;;;;;;;;;5016672;28;20048;-81
2023/09/10 12:13:18;;;;;;;21.70;18.13;;;;;;;;;;5008263;28;20072;-80
2023/09/10 12:15:44;;;;;;;21.20;19.08;;;;;;;;;;5009093;28;21151;-79
2023/09/10 12:18:11;;;;;;;23.70;17.85;;;;;;;;;;5024155;28;21300;-80
2023/09/10 12:20:37;;;;;;;20.80;17.17;;;;;;;;;;5028550;28;20044;-81
2023/09/10 12:23:04;;;;;;;17.95;16.05;;;;;;;;;;5008825;28;20433;-80
2023/09/10 12:25:30;;;;;;;19.95;17.20;;;;;;;;;;5005521;28;22280;-80
2023/09/10 12:27:57;;;;;;;19.23;15.80;;;;;;;;;;4992852;28;20139;-81
2023/09/10 12:30:23;;;;;;;21.98;14.82;;;;;;;;;;5029095;28;21001;-81
2023/09/10 12:32:50;;;;;;;23.13;14.65;;;;;;;;;;5023473;28;20056;-81
2023/09/10 12:35:16;;;;;;;21.95;19.80;;;;;;;;;;5009820;28;20055;-81
2023/09/10 12:37:46;;;;;;;20.08;18.13;;;;;;;;;;5034062;28;20606;-80
2023/09/10 12:40:12;;;;;;;17.17;14.82;;;;;;;;;;5010090;28;20045;-80
2023/09/10 12:42:38;;;;;;;19.60;16.92;;;;;;;;;;4995732;28;20048;-80
2023/09/10 12:45:05;;;;;;;19.05;17.08;;;;;;;;;;4994415;28;20452;-81
2023/09/10 12:47:31;;;;;;;17.08;15.18;;;;;;;;;;5031315;28;20048;-81
2023/09/10 12:49:57;;;;;;;15.30;13.70;;;;;;;;;;5024934;28;20044;-82
2023/09/10 12:52:23;;;;;;;14.07;11.85;;;;;;;;;;4993533;28;20574;-82
2023/09/10 12:54:49;;;;;;;16.08;11.45;;;;;;;;;;5013510;28;20048;-81
2023/09/10 12:57:15;;;;;;;16.27;12.43;;;;;;;;;;4988515;28;20048;-81
2023/09/10 12:59:41;;;;;;;18.40;11.82;;;;;;;;;;5028658;28;20217;-80
2023/09/10 13:02:11;;;;;;;13.50;11.93;;;;;;;;;;5008957;28;20087;-81
2023/09/10 13:04:37;;;;;;;13.57;10.30;;;;;;;;;;5005348;28;20068;-81
2023/09/10 13:07:03;;;;;;;12.93;10.23;;;;;;;;;;4999371;28;20173;-81
2023/09/10 13:09:30;;;;;;;12.93;9.45;;;;;;;;;;4999425;28;20045;-81
2023/09/10 13:11:57;;;;;;;13.45;10.70;;;;;;;;;;4996983;28;20067;-80
2023/09/10 13:14:23;;;;;;;15.10;10.32;;;;;;;;;;5029629;28;20508;-85
2023/09/10 13:16:49;;;;;;;12.05;10.73;;;;;;;;;;5028808;28;20136;-78
2023/09/10 13:19:15;;;;;;;20.45;9.77;;;;;;;;;;5012642;28;20049;-79
2023/09/10 13:21:41;;;;;;;14.02;10.13;;;;;;;;;;5029424;28;20807;-78
2023/09/10 13:24:07;;;;;;;12.02;9.55;;;;;;;;;;5025670;28;20040;-77
2023/09/10 13:26:33;;;;;;;14.77;11.30;;;;;;;;;;5003855;28;20049;-77
2023/09/10 13:29:00;;;;;;;19.05;9.40;;;;;;;;;;5002464;28;20053;-77
2023/09/10 13:31:28;;;;;;;12.43;11.05;;;;;;;;;;5020080;28;20122;-79
2023/09/10 13:33:54;;;;;;;14.82;10.40;;;;;;;;;;5003785;28;20051;-77
2023/09/10 13:36:20;;;;;;;14.50;8.82;;;;;;;;;;4999696;28;20089;-79
2023/09/10 13:38:47;;;;;;;17.80;10.23;;;;;;;;;;5012526;28;22067;-79
2023/09/10 13:41:13;;;;;;;16.33;11.65;;;;;;;;;;5019286;28;20049;-80
2023/09/10 13:43:39;;;;;;;17.33;10.18;;;;;;;;;;5039762;28;20044;-80
2023/09/10 13:46:05;;;;;;;12.55;9.45;;;;;;;;;;5035032;28;20485;-80
2023/09/10 13:48:31;;;;;;;15.70;9.98;;;;;;;;;;5018406;28;20045;-80
2023/09/10 13:50:58;;;;;;;17.00;12.10;;;;;;;;;;5019437;28;20048;-81
2023/09/10 13:53:24;;;;;;;20.23;12.00;;;;;;;;;;5021136;28;20064;-80
2023/09/10 13:55:50;;;;;;;17.15;12.93;;;;;;;;;;5021980;28;20542;-80
2023/09/10 13:58:17;;;;;;;16.65;13.27;;;;;;;;;;5037168;28;20107;-80
2023/09/10 14:00:43;;;;;;;15.52;13.02;;;;;;;;;;5020262;28;20037;-80
2023/09/10 14:03:10;;;;;;;22.13;12.32;;;;;;;;;;5037498;28;20045;-80
2023/09/10 14:05:36;;;;;;;18.38;12.07;;;;;;;;;;5008128;28;20512;-79
2023/09/10 14:08:02;;;;;;;15.57;12.48;;;;;;;;;;5039133;28;20055;-81
2023/09/10 14:10:28;;;;;;;18.67;12.90;;;;;;;;;;5020740;28;20374;-80
2023/09/10 14:12:55;;;;;;;15.02;11.65;;;;;;;;;;5020251;28;20037;-80